Time;durP1;ratioP1;P1;durP2;ratioP2;P2;SDS_P1;SDS_P2;PMS_P1;PMS_P2;Temp;Humidity;BMP_temperature;BMP_pressure;BME280_temperature;BME280_humidity;BME280_pressure;Samples;Min_cycle;Max_cycle;Signal;HPM_P1;HPM_P2
2022/08/21 00:00:27;;;;;;;4.95;1.42;;;;;;;22.38;90.44;100073.66;4974508;28;20042;-86
2022/08/21 00:03:01;;;;;;;2.85;1.40;;;;;;;22.45;89.78;100077.00;4974504;28;20499;-85
2022/08/21 00:05:27;;;;;;;3.28;1.35;;;;;;;22.49;89.09;100074.63;4957084;28;20050;-87
2022/08/21 00:07:53;;;;;;;3.83;1.20;;;;;;;22.41;88.74;100081.28;4974503;28;20093;-87
2022/08/21 00:10:19;;;;;;;1.83;1.27;;;;;;;22.50;86.79;100070.88;4974664;28;20383;-87
2022/08/21 00:12:46;;;;;;;7.00;1.27;;;;;;;22.40;86.90;100076.13;4958027;28;20042;-87
2022/08/21 00:15:16;;;;;;;3.35;1.20;;;;;;;22.44;84.63;100066.44;4974942;28;20030;-87
2022/08/21 00:17:41;;;;;;;3.67;1.00;;;;;;;22.45;84.75;100070.78;4974581;28;20164;-87
2022/08/21 00:20:09;;;;;;;1.70;1.10;;;;;;;22.40;84.53;100063.47;4976730;28;20200;-86
2022/08/21 00:22:36;;;;;;;4.35;1.27;;;;;;;22.23;82.96;100069.97;4974552;28;20073;-86
2022/08/21 00:25:04;;;;;;;2.20;1.13;;;;;;;22.36;81.94;100069.59;4974321;28;20081;-86
2022/08/21 00:27:30;;;;;;;7.00;1.05;;;;;;;22.64;80.17;100069.41;4957223;28;20038;-85
2022/08/21 00:29:55;;;;;;;2.05;1.10;;;;;;;22.78;79.14;100072.56;4940931;28;20046;-86
2022/08/21 00:32:23;;;;;;;3.33;1.08;;;;;;;22.53;81.50;100078.47;4974588;28;20062;-84
2022/08/21 00:34:49;;;;;;;2.15;1.20;;;;;;;22.59;81.38;100072.06;4974187;28;20038;-84
2022/08/21 00:37:14;;;;;;;5.30;1.45;;;;;;;22.68;80.86;100078.69;4974374;28;20588;-85
2022/08/21 00:39:40;;;;;;;2.22;1.10;;;;;;;22.50;82.72;100087.06;4974468;28;20113;-86
2022/08/21 00:42:05;;;;;;;4.13;1.33;;;;;;;22.27;85.13;100092.69;4974451;28;20057;-85
2022/08/21 00:44:31;;;;;;;2.80;1.20;;;;;;;22.30;85.89;100089.50;4974403;28;20065;-85
2022/08/21 00:46:57;;;;;;;4.28;1.35;;;;;;;22.20;85.72;100086.66;4974287;28;20039;-85
2022/08/21 00:49:23;;;;;;;2.25;1.05;;;;;;;22.05;87.17;100093.47;4974349;28;20046;-87
2022/08/21 00:51:59;;;;;;;5.20;1.25;;;;;;;22.12;86.66;100085.19;4974373;28;20026;-85
2022/08/21 00:54:27;;;;;;;4.43;1.05;;;;;;;22.01;86.21;100086.91;4982342;28;20491;-84
2022/08/21 00:57:01;;;;;;;8.00;1.38;;;;;;;22.23;84.08;100078.88;4973924;28;20127;-85
2022/08/21 00:59:34;;;;;;;5.85;1.10;;;;;;;22.26;84.68;100085.66;4959430;28;20114;-85
2022/08/21 01:01:59;;;;;;;1.40;1.02;;;;;;;22.28;84.12;100078.94;4977504;28;20437;-86
2022/08/21 01:04:25;;;;;;;6.15;1.10;;;;;;;22.35;82.69;100078.75;4977535;28;20030;-87
2022/08/21 01:06:51;;;;;;;1.65;1.27;;;;;;;22.36;82.65;100080.41;4977237;28;20043;-83
2022/08/21 01:09:18;;;;;;;5.95;1.13;;;;;;;22.17;83.68;100073.66;4977120;28;20030;-82
2022/08/21 01:11:45;;;;;;;4.20;1.20;;;;;;;22.02;84.94;100075.06;4977075;28;20034;-83
2022/08/21 01:14:12;;;;;;;3.70;1.42;;;;;;;21.83;86.32;100075.53;4959728;28;20054;-85
2022/08/21 01:16:40;;;;;;;3.97;1.13;;;;;;;21.60;88.15;100063.88;4977155;28;20077;-84
2022/08/21 01:19:08;;;;;;;5.85;1.17;;;;;;;21.53;89.43;100071.31;4976989;28;20127;-84
2022/08/21 01:21:33;;;;;;;5.43;1.30;;;;;;;21.49;90.46;100080.94;4959520;28;20038;-85
2022/08/21 01:23:59;;;;;;;4.22;1.35;;;;;;;21.38;91.51;100078.28;4976878;28;20037;-83
2022/08/21 01:26:34;;;;;;;3.45;1.20;;;;;;;21.25;92.02;100070.50;4976900;28;20043;-84
2022/08/21 01:29:34;;;;;;;3.63;1.17;;;;;;;21.43;91.66;100070.31;4960927;28;20043;-83
2022/08/21 01:32:05;;;;;;;3.75;1.35;;;;;;;21.42;89.40;100079.44;4976867;28;20055;-85
2022/08/21 01:34:32;;;;;;;3.35;1.42;;;;;;;21.42;89.81;100084.84;4958414;28;20087;-85
2022/08/21 01:36:58;;;;;;;2.28;1.30;;;;;;;21.35;90.39;100078.78;4976373;28;20035;-84
2022/08/21 01:39:23;;;;;;;3.80;0.98;;;;;;;21.33;90.10;100070.94;4976153;28;20027;-85
2022/08/21 01:41:48;;;;;;;2.28;1.00;;;;;;;21.14;91.58;100073.03;4975354;28;20066;-86
2022/08/21 01:44:14;;;;;;;2.15;1.08;;;;;;;21.10;91.89;100069.19;4975551;28;20035;-86
2022/08/21 01:46:40;;;;;;;7.57;1.00;;;;;;;21.25;90.51;100065.13;4957665;28;20023;-86
2022/08/21 01:49:05;;;;;;;2.55;1.10;;;;;;;21.15;92.20;100068.44;4974883;28;20101;-83
2022/08/21 01:51:31;;;;;;;5.15;1.10;;;;;;;21.21;91.19;100067.50;4966776;28;20064;-84
2022/08/21 01:53:57;;;;;;;3.30;1.08;;;;;;;21.11;92.02;100057.34;4971167;28;20404;-86
2022/08/21 01:56:24;;;;;;;5.40;1.10;;;;;;;21.26;90.34;100064.06;4976412;28;20034;-86
2022/08/21 01:58:50;;;;;;;1.67;1.20;;;;;;;21.38;88.64;100062.94;4976378;28;20038;-85
2022/08/21 02:01:15;;;;;;;1.60;0.90;;;;;;;21.50;87.72;100060.19;4958891;28;20047;-85
2022/08/21 02:03:41;;;;;;;2.50;1.08;;;;;;;21.33;88.37;100053.94;4959582;28;20138;-87
2022/08/21 02:06:11;;;;;;;3.08;0.95;;;;;;;21.32;89.13;100052.31;4959039;28;20138;-86
2022/08/21 02:08:37;;;;;;;3.42;0.90;;;;;;;21.22;89.92;100057.53;4975913;28;20031;-86
2022/08/21 02:11:02;;;;;;;2.83;0.95;;;;;;;21.03;91.66;100048.81;4980678;28;20145;-87
2022/08/21 02:13:28;;;;;;;4.97;0.90;;;;;;;20.98;91.93;100054.91;4984131;28;20469;-85
2022/08/21 02:15:53;;;;;;;2.58;1.10;;;;;;;21.05;91.70;100047.50;4976506;28;20031;-86
2022/08/21 02:18:19;;;;;;;3.40;0.75;;;;;;;21.09;91.65;100042.44;4976696;28;20050;-85
2022/08/21 02:20:47;;;;;;;6.20;0.98;;;;;;;21.01;90.94;100043.66;4976701;28;20097;-84
2022/08/21 02:23:14;;;;;;;4.70;0.88;;;;;;;20.87;93.51;100050.41;4976746;28;20030;-85
2022/08/21 02:25:41;;;;;;;2.17;1.10;;;;;;;20.81;94.13;100046.00;4976316;28;20117;-86
2022/08/21 02:28:15;;;;;;;6.30;1.27;;;;;;;20.84;93.45;100045.50;4976917;28;20043;-84
2022/08/21 02:30:44;;;;;;;5.20;1.02;;;;;;;20.84;93.58;100039.28;4977039;28;20035;-85
2022/08/21 02:33:11;;;;;;;1.63;1.00;;;;;;;20.75;93.93;100041.53;4975867;28;20043;-87
2022/08/21 02:35:41;;;;;;;2.15;0.80;;;;;;;20.72;93.96;100047.41;4975915;28;20396;-87
2022/08/21 02:38:09;;;;;;;2.72;0.90;;;;;;;20.71;93.56;100040.41;4958458;28;20034;-87
2022/08/21 02:40:37;;;;;;;7.47;0.80;;;;;;;20.81;91.64;100046.00;4975601;28;20035;-86
2022/08/21 02:43:05;;;;;;;2.28;0.85;;;;;;;20.76;91.47;100045.88;4975502;28;20038;-88
2022/08/21 02:45:31;;;;;;;2.80;0.93;;;;;;;20.91;90.46;100046.16;4975310;28;20023;-86
2022/08/21 02:48:04;;;;;;;3.65;1.08;;;;;;;20.79;90.33;100042.69;4975567;28;20046;-84
2022/08/21 02:50:33;;;;;;;4.80;0.90;;;;;;;20.73;90.31;100038.28;4975461;28;20049;-87
2022/08/21 02:52:59;;;;;;;3.55;1.33;;;;;;;20.74;90.95;100042.63;4975504;28;20083;-85
2022/08/21 02:55:28;;;;;;;1.23;0.73;;;;;;;20.74;89.97;100045.31;4958243;28;20432;-86
2022/08/21 02:57:56;;;;;;;2.92;0.88;;;;;;;20.80;89.37;100047.03;4972781;28;20531;-86
2022/08/21 03:00:24;;;;;;;3.70;0.73;;;;;;;20.67;90.98;100039.25;4966144;28;20511;-87
2022/08/21 03:02:50;;;;;;;5.30;1.25;;;;;;;20.61;92.25;100041.00;4948002;28;20034;-87
2022/08/21 03:05:17;;;;;;;3.63;0.98;;;;;;;20.74;91.15;100039.09;4974842;28;20031;-86
2022/08/21 03:07:44;;;;;;;3.70;1.10;;;;;;;20.77;92.27;100042.13;4975050;28;20062;-87
2022/08/21 03:10:09;;;;;;;2.63;0.85;;;;;;;20.69;93.16;100037.13;4975270;28;20038;-88
2022/08/21 03:12:35;;;;;;;2.42;0.90;;;;;;;20.57;94.56;100039.03;4975340;28;20123;-85
2022/08/21 03:15:07;;;;;;;3.15;1.10;;;;;;;20.56;96.05;100034.69;4975362;28;20547;-87
2022/08/21 03:17:33;;;;;;;1.45;0.82;;;;;;;20.49;95.78;100032.16;4975267;28;20039;-85
2022/08/21 03:20:00;;;;;;;2.55;0.80;;;;;;;20.51;95.38;100030.06;4974573;28;20038;-86
2022/08/21 03:22:26;;;;;;;3.92;0.90;;;;;;;20.56;95.31;100030.13;4974540;28;20449;-88
2022/08/21 03:24:53;;;;;;;4.55;1.00;;;;;;;20.73;94.70;100024.81;4975477;28;20076;-88
2022/08/21 03:27:19;;;;;;;1.42;0.77;;;;;;;20.65;94.14;100027.88;4975468;28;20035;-84
2022/08/21 03:29:44;;;;;;;1.30;0.88;;;;;;;20.54;96.08;100020.66;4981232;28;20031;-85
2022/08/21 03:32:10;;;;;;;1.17;0.82;;;;;;;20.46;94.63;100031.81;4989656;28;20039;-88
2022/08/21 03:34:37;;;;;;;3.75;1.00;;;;;;;20.37;94.90;100023.28;4976479;28;20094;-86
2022/08/21 03:37:04;;;;;;;2.60;1.27;;;;;;;20.40;93.64;100024.69;4975975;28;20038;-85
2022/08/21 03:39:31;;;;;;;1.98;0.77;;;;;;;20.59;91.25;100021.56;4977128;28;20395;-84
2022/08/21 03:41:57;;;;;;;4.22;0.90;;;;;;;20.36;92.43;100021.66;4975216;28;20084;-84
2022/08/21 03:44:22;;;;;;;2.70;0.90;;;;;;;20.17;94.71;100016.63;4974860;28;20428;-86
2022/08/21 03:46:48;;;;;;;1.75;0.90;;;;;;;20.10;95.18;100017.56;4975004;28;20034;-85
2022/08/21 03:49:14;;;;;;;1.65;0.60;;;;;;;19.99;97.04;100015.72;4978476;28;20144;-85
2022/08/21 03:51:40;;;;;;;4.10;1.20;;;;;;;20.05;96.46;100013.97;4976817;28;20035;-87
2022/08/21 03:54:06;;;;;;;2.70;0.70;;;;;;;20.02;96.60;100012.53;4974643;28;20120;-85
2022/08/21 03:56:31;;;;;;;0.98;0.80;;;;;;;20.07;95.88;100015.34;4957011;28;20552;-85
2022/08/21 03:58:57;;;;;;;6.72;0.80;;;;;;;20.20;95.33;100018.84;4974455;28;20031;-85
2022/08/21 04:01:23;;;;;;;3.05;0.80;;;;;;;20.27;94.32;100012.31;4974181;28;20039;-84
2022/08/21 04:03:48;;;;;;;1.55;0.63;;;;;;;20.45;93.12;100014.03;4975024;28;20027;-84
2022/08/21 04:06:14;;;;;;;2.28;0.80;;;;;;;20.39;92.85;100023.03;4992108;28;20046;-84
2022/08/21 04:08:42;;;;;;;5.03;0.70;;;;;;;20.18;94.79;100015.56;4974285;28;20035;-85
2022/08/21 04:11:10;;;;;;;2.40;0.70;;;;;;;20.04;96.15;100017.69;4957160;28;20443;-83
2022/08/21 04:13:36;;;;;;;1.33;0.70;;;;;;;19.97;97.53;100028.59;4974164;28;20062;-84
2022/08/21 04:16:02;;;;;;;1.65;0.90;;;;;;;19.82;99.15;100022.84;4974182;28;20116;-83
2022/08/21 04:18:28;;;;;;;3.58;1.13;;;;;;;19.98;97.42;100018.66;4974301;28;20031;-85
2022/08/21 04:20:55;;;;;;;4.22;0.80;;;;;;;19.87;99.31;100016.78;4973940;28;20093;-84
2022/08/21 04:23:22;;;;;;;3.60;1.27;;;;;;;19.97;98.03;100023.22;4974216;28;20039;-83
2022/08/21 04:25:47;;;;;;;1.52;0.80;;;;;;;20.15;96.41;100019.53;4974243;28;20073;-87
2022/08/21 04:28:14;;;;;;;2.38;0.80;;;;;;;20.09;96.85;100023.19;4974140;28;20042;-85
2022/08/21 04:30:39;;;;;;;0.70;0.57;;;;;;;20.13;95.86;100027.03;4974080;28;20027;-85
2022/08/21 04:33:05;;;;;;;1.70;0.60;;;;;;;20.32;94.53;100031.25;4976525;28;20388;-85
2022/08/21 04:35:31;;;;;;;6.28;1.08;;;;;;;20.37;93.20;100039.44;4977768;28;20035;-85
2022/08/21 04:37:57;;;;;;;3.80;1.00;;;;;;;20.51;91.65;100040.81;4977994;28;20043;-86
2022/08/21 04:40:25;;;;;;;4.45;0.80;;;;;;;20.46;91.17;100042.56;4977666;28;20041;-83
2022/08/21 04:42:58;;;;;;;3.92;0.77;;;;;;;20.43;91.87;100040.34;4977697;28;20038;-83
2022/08/21 04:45:39;;;;;;;4.43;0.75;;;;;;;20.44;91.45;100050.06;4977338;28;20417;-83
2022/08/21 04:48:08;;;;;;;2.05;1.05;;;;;;;20.35;93.10;100046.13;4960980;28;20408;-84
2022/08/21 04:50:39;;;;;;;1.50;0.82;;;;;;;20.27;93.56;100049.16;4985125;28;20042;-82
2022/08/21 04:53:23;;;;;;;1.67;0.80;;;;;;;20.21;94.39;100055.47;4979795;28;20038;-85
2022/08/21 04:55:52;;;;;;;3.70;1.08;;;;;;;20.20;95.36;100059.19;4960376;28;20031;-86
2022/08/21 04:58:20;;;;;;;3.67;0.80;;;;;;;20.24;94.80;100065.75;4977142;28;20062;-86
2022/08/21 05:00:46;;;;;;;8.25;0.93;;;;;;;20.18;94.60;100059.47;4977223;28;20547;-86
2022/08/21 05:03:14;;;;;;;7.32;0.98;;;;;;;20.35;93.14;100062.28;4977492;28;20031;-83
2022/08/21 05:05:40;;;;;;;2.47;1.02;;;;;;;20.53;91.18;100064.78;4977352;28;20089;-83
2022/08/21 05:08:07;;;;;;;2.95;0.93;;;;;;;20.57;89.77;100068.66;4977306;28;20039;-87
2022/08/21 05:10:33;;;;;;;5.85;1.00;;;;;;;20.66;89.77;100064.53;4977633;28;20031;-85
2022/08/21 05:13:00;;;;;;;4.15;1.00;;;;;;;20.79;88.37;100069.63;4977198;28;20523;-84
2022/08/21 05:15:26;;;;;;;4.60;0.95;;;;;;;20.86;87.97;100073.00;4977140;28;20432;-85
2022/08/21 05:17:51;;;;;;;4.28;1.02;;;;;;;20.93;87.69;100065.59;4976860;28;20185;-87
2022/08/21 05:20:18;;;;;;;2.42;0.70;;;;;;;21.04;86.89;100061.22;4977037;28;20038;-85
2022/08/21 05:22:43;;;;;;;3.13;0.98;;;;;;;21.30;85.39;100078.69;4977200;28;20046;-84
2022/08/21 05:25:09;;;;;;;4.25;0.98;;;;;;;21.49;83.31;100080.09;4976965;28;20444;-85
2022/08/21 05:27:35;;;;;;;4.47;0.88;;;;;;;21.82;81.67;100076.59;4977299;28;20030;-88
2022/08/21 05:30:01;;;;;;;3.40;0.98;;;;;;;22.01;79.72;100083.38;4976818;28;20403;-87
2022/08/21 05:32:28;;;;;;;5.45;0.80;;;;;;;22.17;77.77;100087.16;4976974;28;20161;-87
2022/08/21 05:34:54;;;;;;;1.23;0.95;;;;;;;22.24;76.48;100085.88;4977096;28;20039;-87
2022/08/21 05:37:21;;;;;;;6.63;0.80;;;;;;;22.48;76.37;100078.38;4976907;28;20033;-87
2022/08/21 05:39:46;;;;;;;1.92;0.82;;;;;;;22.56;74.86;100080.66;4976914;28;20396;-88
2022/08/21 05:42:12;;;;;;;2.58;0.88;;;;;;;23.43;70.85;100080.59;4977061;28;20027;-86
2022/08/21 05:44:38;;;;;;;5.90;0.70;;;;;;;24.17;66.64;100084.16;4958978;28;20027;-86
2022/08/21 05:47:08;;;;;;;7.82;0.93;;;;;;;24.35;64.26;100088.34;4959684;28;20049;-85
2022/08/21 05:49:35;;;;;;;5.68;0.90;;;;;;;24.87;63.16;100093.72;4960630;28;20031;-88
2022/08/21 05:52:01;;;;;;;4.47;0.60;;;;;;;25.37;59.71;100101.19;4962782;28;20046;-86
2022/08/21 05:54:27;;;;;;;2.20;0.80;;;;;;;25.71;58.42;100107.75;4979083;28;20496;-85
2022/08/21 05:56:53;;;;;;;2.45;0.70;;;;;;;25.16;60.88;100103.03;4979958;28;20039;-85
2022/08/21 05:59:18;;;;;;;7.07;0.93;;;;;;;25.45;60.66;100100.66;4966781;28;20061;-85
2022/08/21 06:01:45;;;;;;;1.38;0.77;;;;;;;25.84;58.86;100104.50;4996630;28;20349;-86
2022/08/21 06:04:11;;;;;;;1.23;0.70;;;;;;;25.96;58.88;100105.03;4988477;28;20039;-85
2022/08/21 06:06:37;;;;;;;1.30;0.55;;;;;;;26.85;56.78;100104.28;4968610;28;20046;-87
2022/08/21 06:09:03;;;;;;;5.63;0.70;;;;;;;27.00;55.07;100103.41;4979424;28;20039;-86
2022/08/21 06:11:29;;;;;;;4.53;1.00;;;;;;;26.82;55.45;100102.13;4988867;28;20045;-86
2022/08/21 06:13:55;;;;;;;0.90;0.70;;;;;;;27.64;52.02;100106.03;4979844;28;20058;-86
2022/08/21 06:16:22;;;;;;;3.25;0.55;;;;;;;26.68;55.29;100111.97;4979555;28;20562;-86
2022/08/21 06:18:47;;;;;;;7.72;0.93;;;;;;;26.49;57.20;100113.63;4963244;28;20031;-86
2022/08/21 06:21:14;;;;;;;2.95;0.90;;;;;;;26.34;58.39;100108.25;4960693;28;20035;-85
2022/08/21 06:23:40;;;;;;;6.15;1.60;;;;;;;26.02;60.17;100114.78;4977009;28;20041;-83
2022/08/21 06:26:07;;;;;;;0.85;0.80;;;;;;;26.33;60.71;100109.34;4958129;28;20031;-84
2022/08/21 06:28:33;;;;;;;3.05;0.95;;;;;;;26.89;57.63;100102.63;4975633;28;20400;-85
2022/08/21 06:30:59;;;;;;;1.65;0.70;;;;;;;26.60;58.58;100104.38;4975806;28;20444;-86
2022/08/21 06:33:25;;;;;;;2.15;1.00;;;;;;;27.33;56.94;100101.84;4975565;28;20027;-84
2022/08/21 06:35:50;;;;;;;2.80;1.05;;;;;;;27.66;55.61;100104.63;4975936;28;20043;-85
2022/08/21 06:38:17;;;;;;;5.80;1.67;;;;;;;28.43;52.76;100104.75;4958882;28;20030;-85
2022/08/21 06:40:42;;;;;;;7.15;0.90;;;;;;;27.71;55.01;100103.75;4976166;28;20365;-87
2022/08/21 06:43:13;;;;;;;2.35;1.08;;;;;;;27.68;56.21;100105.16;4976542;28;20075;-84
2022/08/21 06:45:38;;;;;;;5.43;1.30;;;;;;;28.71;52.02;100112.06;4979452;28;20031;-85
2022/08/21 06:48:06;;;;;;;3.55;1.13;;;;;;;28.51;52.68;100104.91;4991622;28;20034;-85
2022/08/21 06:50:33;;;;;;;4.40;1.38;;;;;;;28.74;53.35;100104.09;4968531;28;20448;-84
2022/08/21 06:53:01;;;;;;;2.95;1.27;;;;;;;28.56;52.51;100110.31;4998626;28;20046;-81
2022/08/21 06:55:27;;;;;;;2.90;1.15;;;;;;;28.73;52.71;100110.69;4994211;28;20043;-81
2022/08/21 06:57:52;;;;;;;3.90;1.10;;;;;;;28.80;53.15;100113.06;4975677;28;20038;-85
2022/08/21 07:00:18;;;;;;;3.38;1.10;;;;;;;28.90;52.97;100107.44;4975182;28;20042;-80
2022/08/21 07:02:44;;;;;;;6.68;1.00;;;;;;;29.10;51.71;100111.84;4975550;28;20031;-81
2022/08/21 07:05:09;;;;;;;2.92;1.00;;;;;;;28.72;52.75;100116.44;4975777;28;20045;-81
2022/08/21 07:07:35;;;;;;;4.13;1.00;;;;;;;29.18;50.86;100114.72;4980861;28;20042;-81
2022/08/21 07:10:01;;;;;;;2.70;1.23;;;;;;;29.28;48.98;100124.72;4981445;28;20035;-81
2022/08/21 07:12:27;;;;;;;8.15;0.98;;;;;;;29.58;48.73;100121.53;4982280;28;20481;-80
2022/08/21 07:14:52;;;;;;;3.08;1.17;;;;;;;29.31;48.85;100120.56;4982103;28;20030;-82
2022/08/21 07:17:18;;;;;;;3.92;1.42;;;;;;;29.21;48.59;100116.84;4978857;28;20415;-80
2022/08/21 07:19:44;;;;;;;3.97;1.10;;;;;;;29.20;48.06;100112.50;4979353;28;20037;-82
2022/08/21 07:22:09;;;;;;;3.63;0.80;;;;;;;29.51;47.06;100109.34;4961306;28;20479;-82
2022/08/21 07:24:35;;;;;;;3.67;1.00;;;;;;;29.52;47.97;100105.50;4959720;28;20035;-83
2022/08/21 07:27:01;;;;;;;9.02;1.35;;;;;;;29.48;46.61;100118.13;4976149;28;20085;-84
2022/08/21 07:29:26;;;;;;;2.67;1.10;;;;;;;29.41;46.58;100110.31;4959001;28;20041;-82
2022/08/21 07:31:52;;;;;;;6.43;1.42;;;;;;;29.76;44.67;100119.88;4975860;28;20038;-83
2022/08/21 07:34:18;;;;;;;2.20;0.82;;;;;;;29.86;44.78;100122.47;4975887;28;20087;-82
2022/08/21 07:36:43;;;;;;;3.78;1.00;;;;;;;29.71;45.26;100119.94;4981882;28;20023;-84
2022/08/21 07:39:09;;;;;;;3.17;1.10;;;;;;;29.61;46.08;100114.66;4956364;29;20038;-90
2022/08/21 07:41:35;;;;;;;1.63;1.10;;;;;;;29.64;45.62;100109.41;4964453;28;20029;-87
2022/08/21 07:44:01;;;;;;;4.85;1.10;;;;;;;29.47;47.08;100120.03;4984937;28;20094;-86
2022/08/21 07:46:26;;;;;;;2.65;0.90;;;;;;;29.65;47.45;100115.69;4960186;28;20457;-87
2022/08/21 07:48:53;;;;;;;3.55;1.33;;;;;;;29.90;45.83;100123.47;4962011;28;20039;-88
2022/08/21 07:51:20;;;;;;;1.98;0.95;;;;;;;30.27;44.88;100122.53;4977419;28;20037;-87
2022/08/21 07:54:03;;;;;;;2.17;0.98;;;;;;;30.19;43.91;100113.09;4981965;28;20014;-88
2022/08/21 07:56:32;;;;;;;2.72;1.10;;;;;;;30.29;43.33;100114.06;4979207;28;20073;-90
2022/08/21 07:58:57;;;;;;;3.80;1.33;;;;;;;30.33;43.99;100115.88;4959770;28;20034;-86
2022/08/21 08:01:24;;;;;;;2.13;1.60;;;;;;;30.43;43.72;100110.22;4975486;28;20065;-88
2022/08/21 08:03:49;;;;;;;3.25;1.20;;;;;;;30.38;44.18;100113.03;4960617;28;20035;-91
2022/08/21 08:06:16;;;;;;;4.07;1.80;;;;;;;30.53;42.99;100112.78;4958899;28;20038;-87
2022/08/21 08:08:42;;;;;;;2.90;1.35;;;;;;;30.74;43.27;100110.44;4984083;28;20081;-85
2022/08/21 08:11:14;;;;;;;3.25;1.75;;;;;;;30.80;42.79;100109.22;4984039;28;20058;-84
2022/08/21 08:13:42;;;;;;;9.82;2.05;;;;;;;30.94;42.83;100110.00;4982815;28;20049;-88
2022/08/21 08:16:08;;;;;;;4.30;1.80;;;;;;;31.11;42.39;100110.22;4982362;28;20027;-86
2022/08/21 08:18:34;;;;;;;2.42;1.70;;;;;;;30.95;42.44;100113.56;4967295;28;20526;-89
2022/08/21 08:21:00;;;;;;;3.08;1.52;;;;;;;31.18;42.11;100107.06;4970751;28;20099;-86
2022/08/21 08:23:27;;;;;;;4.10;2.05;;;;;;;31.26;42.30;100109.84;4973555;28;20555;-88
2022/08/21 08:25:53;;;;;;;7.25;1.92;;;;;;;31.03;42.58;100102.72;4995301;28;20051;-89
2022/08/21 08:28:18;;;;;;;4.85;2.15;;;;;;;31.01;42.72;100093.19;4977943;28;20107;-88
2022/08/21 08:30:46;;;;;;;4.78;2.33;;;;;;;30.89;43.70;100101.91;4992242;28;20035;-88
2022/08/21 08:33:12;;;;;;;4.25;1.75;;;;;;;31.26;43.25;100096.16;4959664;28;20035;-87
2022/08/21 08:35:39;;;;;;;6.38;2.00;;;;;;;31.68;42.07;100089.44;4972867;28;20045;-88
2022/08/21 08:38:05;;;;;;;6.47;2.33;;;;;;;31.89;41.73;100091.66;4971901;28;20058;-86
2022/08/21 08:40:39;;;;;;;4.40;1.63;;;;;;;31.69;42.04;100084.75;4999453;28;20065;-88
2022/08/21 08:43:06;;;;;;;3.60;1.75;;;;;;;32.17;41.31;100087.66;4999988;28;20067;-89
2022/08/21 08:45:36;;;;;;;6.00;2.08;;;;;;;32.73;40.44;100079.47;4984623;28;20039;-88
2022/08/21 08:48:05;;;;;;;5.63;2.20;;;;;;;31.90;42.68;100077.63;4967887;28;20058;-88
2022/08/21 08:50:34;;;;;;;4.22;1.67;;;;;;;32.28;41.36;100073.31;4986175;28;20038;-89
2022/08/21 08:53:07;;;;;;;5.72;1.55;;;;;;;32.15;41.98;100081.69;4968567;28;20043;-89
2022/08/21 08:55:44;;;;;;;5.13;2.00;;;;;;;32.41;41.72;100082.59;4984684;28;20062;-89
2022/08/21 08:58:32;;;;;;;6.88;2.60;;;;;;;32.66;40.17;100075.59;4971509;28;20049;-88
2022/08/21 09:01:16;;;;;;;3.63;2.35;;;;;;;32.81;40.46;100075.16;5003118;28;20052;-89
2022/08/21 09:03:49;;;;;;;6.85;1.92;;;;;;;32.75;40.47;100065.41;4956069;28;20042;-89
2022/08/21 09:06:41;;;;;;;12.63;2.17;;;;;;;33.18;39.92;100068.25;4986559;28;20042;-93
2022/08/21 09:09:54;;;;;;;4.85;2.35;;;;;;;32.74;41.19;100063.84;4971216;28;20026;-89
2022/08/21 09:13:11;;;;;;;3.10;1.80;;;;;;;33.09;39.99;100054.53;5004259;28;20033;-89
2022/08/21 09:16:23;;;;;;;4.78;2.83;;;;;;;32.99;40.61;100065.78;4987492;28;20071;-88
2022/08/21 09:19:34;;;;;;;5.77;2.37;;;;;;;33.18;40.24;100063.56;5001672;28;20031;-85
2022/08/21 09:25:18;;;;;;;8.95;3.90;;;;;;;32.67;40.58;100058.81;5107786;23;20050;-87
2022/08/21 09:27:48;;;;;;;6.43;3.10;;;;;;;32.66;40.65;100053.63;5100782;23;20102;-86
2022/08/21 09:30:20;;;;;;;7.03;2.90;;;;;;;33.00;40.43;100056.44;5019381;28;20053;-86
2022/08/21 09:32:52;;;;;;;3.83;2.80;;;;;;;33.36;39.60;100060.81;5019222;28;20034;-87
2022/08/21 09:35:20;;;;;;;;;;;;;;;33.44;40.05;100054.53;5020518;28;20103;-87
2022/08/21 09:38:16;;;;;;;4.80;2.55;;;;;;;33.34;38.91;100055.66;5020304;28;19925;-88
2022/08/21 09:40:46;;;;;;;7.28;3.10;;;;;;;32.79;40.67;100049.94;5020207;28;20046;-89
2022/08/21 09:43:14;;;;;;;6.40;3.13;;;;;;;32.94;39.75;100057.72;5019077;28;20034;-84
2022/08/21 09:45:41;;;;;;;6.75;2.55;;;;;;;33.56;39.53;100051.91;5019359;28;20022;-90
2022/08/21 09:48:24;;;;;;;7.63;2.45;;;;;;;33.73;38.92;100051.91;5020934;28;20038;-87
2022/08/21 09:50:52;;;;;;;6.88;2.80;;;;;;;33.57;39.77;100053.53;5020193;28;20061;-88
2022/08/21 09:53:26;;;;;;;5.07;3.20;;;;;;;32.73;41.06;100045.72;5021038;28;20027;-89
2022/08/21 09:58:49;;;;;;;5.03;2.63;;;;;;;32.65;42.14;100044.59;5006912;28;20019;-87
2022/08/21 10:01:25;;;;;;;7.18;3.45;;;;;;;33.08;40.71;100044.63;5020674;28;20034;-87
2022/08/21 10:04:07;;;;;;;6.97;2.88;;;;;;;33.17;40.53;100050.97;5004292;28;20052;-88
2022/08/21 10:09:41;;;;;;;5.32;2.70;;;;;;;33.60;39.19;100058.38;5019124;28;20033;-87
2022/08/21 10:12:25;;;;;;;5.25;2.92;;;;;;;33.53;39.80;100047.06;5018662;28;20039;-86
2022/08/21 10:15:20;;;;;;;3.30;2.40;;;;;;;33.81;38.13;100048.31;5019693;28;20029;-86
2022/08/21 10:18:15;;;;;;;9.25;2.30;;;;;;;34.20;36.86;100053.56;5014110;28;20046;-87
2022/08/21 10:20:51;;;;;;;7.57;2.30;;;;;;;34.11;37.37;100051.94;5018112;28;20053;-85
2022/08/21 10:23:32;;;;;;;5.38;2.10;;;;;;;34.00;37.32;100057.00;5015267;28;20094;-89
2022/08/21 10:26:24;;;;;;;8.63;2.67;;;;;;;33.80;38.64;100046.72;5009662;28;20494;-85
2022/08/21 10:28:49;;;;;;;9.73;2.80;;;;;;;33.72;38.67;100048.34;5007105;28;20399;-88
2022/08/21 10:31:28;;;;;;;4.50;2.60;;;;;;;34.43;37.27;100047.78;5004545;28;20038;-86
2022/08/21 10:34:03;;;;;;;5.95;2.22;;;;;;;34.16;37.36;100044.34;5007434;28;20098;-91
2022/08/21 10:36:44;;;;;;;3.03;1.80;;;;;;;35.01;36.67;100042.22;5011450;28;20030;-91
2022/08/21 10:39:13;;;;;;;;;;;;;;;34.73;36.62;100041.16;5013459;28;20049;-91
2022/08/21 10:42:17;;;;;;;3.88;2.35;;;;;;;34.42;36.56;100037.91;5013835;28;19917;-90
2022/08/21 10:44:49;;;;;;;6.03;2.30;;;;;;;34.48;35.49;100039.31;4996001;28;20069;-90
2022/08/21 10:47:48;;;;;;;4.40;1.90;;;;;;;34.20;35.36;100037.06;5011667;28;20053;-90
2022/08/21 10:50:25;;;;;;;3.65;1.77;;;;;;;34.18;37.36;100036.56;5011381;28;20053;-90
2022/08/21 10:52:54;;;;;;;6.03;1.90;;;;;;;34.62;36.19;100026.16;5015005;28;20038;-92
2022/08/21 10:55:21;;;;;;;7.05;1.48;;;;;;;34.76;35.46;100023.97;5080722;23;20046;-89
2022/08/21 10:58:01;;;;;;;5.38;1.70;;;;;;;34.47;36.06;100024.75;4965205;28;20031;-86
2022/08/21 11:00:45;;;;;;;4.72;2.30;;;;;;;35.44;34.90;100021.78;4972418;28;20047;-89
2022/08/21 11:03:37;;;;;;;5.50;1.60;;;;;;;35.72;34.57;100012.59;4952261;28;20039;-89
2022/08/21 11:06:12;;;;;;;;;;;;;;;35.62;33.59;100017.75;4973231;28;20042;-91
2022/08/21 11:08:51;;;;;;;2.60;1.48;;;;;;;35.82;33.19;100013.28;4977265;28;19902;-89
2022/08/21 11:11:36;;;;;;;5.60;1.60;;;;;;;35.90;34.17;100006.84;4965921;28;20057;-86
2022/08/21 11:14:27;;;;;;;5.82;1.80;;;;;;;36.07;33.05;100006.66;4968987;28;20514;-88
2022/08/21 11:17:03;;;;;;;2.90;1.70;;;;;;;36.14;32.90;100006.91;4965795;28;20051;-89
2022/08/21 11:19:45;;;;;;;8.20;1.42;;;;;;;36.22;32.93;100004.06;4965281;28;20043;-85
2022/08/21 11:22:44;;;;;;;5.75;1.58;;;;;;;37.08;31.64;99996.44;4963511;28;20040;-86
2022/08/21 11:25:20;;;;;;;4.55;1.42;;;;;;;36.85;32.98;99998.09;4924477;29;20056;-89
2022/08/21 11:27:54;;;;;;;4.88;1.30;;;;;;;36.90;31.04;99995.88;4919708;29;20151;-88
2022/08/21 11:30:43;;;;;;;5.80;1.90;;;;;;;36.96;31.59;100000.00;4912621;29;20044;-91
2022/08/21 11:33:24;;;;;;;4.60;1.58;;;;;;;36.42;31.63;99990.47;4904364;29;20041;-83
2022/08/21 11:36:04;;;;;;;2.42;1.60;;;;;;;35.96;32.08;99989.75;4951469;28;20051;-87
2022/08/21 11:38:41;;;;;;;2.30;1.42;;;;;;;36.54;31.06;99990.47;4952124;28;20031;-86
2022/08/21 11:41:22;;;;;;;2.78;1.30;;;;;;;36.81;31.04;99986.13;4963136;28;20043;-83
2022/08/21 11:44:01;;;;;;;3.97;1.30;;;;;;;36.26;31.71;99982.09;4953537;28;20050;-82
2022/08/21 11:47:04;;;;;;;3.22;1.17;;;;;;;35.72;32.43;99978.69;4958252;28;20345;-86
2022/08/21 11:49:46;;;;;;;3.80;1.30;;;;;;;35.26;33.13;99971.56;4960845;28;20039;-84